Hambleton, United Kingdom
Current Conditions -  °F | °C
As of 12:50 AM on Saturday 22 Nov 2014 (Local Time) from EGXU Reporting Station
Overcast Overcast  
Wind Chill: 40°   Ceiling: 500
Heat Index: 46°   Visibility: 2.5mi
Dew Point: 46°   Wind: 14mph
Humidity: 100%   Direction: 130°SE
Pressure: 29.83"   Gusts: NA
Location:  53.77°N, 1.17°W
Report Text: EGXU 220050Z AUTO 13012KT 4000 // OVC005/// 08/08 Q1010
Loading
Personal Weather Stations






























Interactive Weather Map New forecast layout! Learn more

10-Day Weather Forecast

Advertisements
Track Severe Weather on mobile